TLPL/UVF METAR and TAF weather

Enter ICAO airport designator
Station Type Date Time Source
TLPL METAR 2019/04/19 11:00 UTC NOAA

TLPL 191100Z 08018KT 9999 FEW026 26/22 Q1015 NOSIG


Station Type Date Time Source
TLPL Decoded METAR 2019/04/19 11:00 UTC NOAA

Hewanorra International Airport, Saint Lucia (TLPL) 13-45N 060-57W 10M
Apr 19, 2019 - 07:00 AM EDT / 2019.04.19 1100 UTC
Wind: from the E (080 degrees) at 21 MPH (18 KT):0
Visibility: greater than 7 mile(s):0
Sky conditions: mostly clear
Temperature: 78 F (26 C)
Dew Point: 71 F (22 C)
Relative Humidity: 78%
Pressure (altimeter): 29.97 in. Hg (1015 hPa)
ob: TLPL 191100Z 08018KT 9999 FEW026 26/22 Q1015 NOSIG
cycle: 11

Station Type Date Time Source
TLPL TAF 2019/04/19 12:06 UTC NOAA

TAF TLPL 191100Z 1912/2012 08018KT 9999 SCT026 PROB30
TEMPO 1915/2012 SHRA

Example: see airport list